createdAt,value
2023-03-06T00:01:16.007Z,0.79
2023-03-06T00:03:42.435Z,0.73
2023-03-06T00:06:08.938Z,0.73
2023-03-06T00:08:35.449Z,0.75
2023-03-06T00:11:01.851Z,0.76
2023-03-06T00:13:28.272Z,0.76
2023-03-06T00:15:54.733Z,0.72
2023-03-06T00:18:21.162Z,0.70
2023-03-06T00:20:47.566Z,0.70
2023-03-06T00:23:13.988Z,0.67
2023-03-06T00:25:40.381Z,0.65
2023-03-06T00:28:06.798Z,0.61
2023-03-06T00:30:33.359Z,0.60
2023-03-06T00:32:59.773Z,0.60
2023-03-06T00:35:26.227Z,0.52
2023-03-06T00:37:52.678Z,0.50
2023-03-06T00:40:19.069Z,0.49
2023-03-06T00:42:45.485Z,0.50
2023-03-06T00:45:11.919Z,0.50
2023-03-06T00:47:38.506Z,0.48
2023-03-06T00:50:04.933Z,0.45
2023-03-06T00:52:31.355Z,0.43
2023-03-06T00:54:57.758Z,0.40
2023-03-06T00:57:24.165Z,0.38
2023-03-06T00:59:50.563Z,0.38
2023-03-06T01:02:16.992Z,0.36
2023-03-06T01:04:43.421Z,0.40
2023-03-06T01:07:09.813Z,0.41
2023-03-06T01:09:36.207Z,0.43
2023-03-06T01:12:02.609Z,0.41
2023-03-06T01:14:29.021Z,0.41
2023-03-06T01:16:55.450Z,0.43
2023-03-06T01:19:21.867Z,0.44
2023-03-06T01:21:48.258Z,0.40
2023-03-06T01:24:14.667Z,0.40
2023-03-06T01:26:41.059Z,0.40
2023-03-06T01:29:07.460Z,0.41
2023-03-06T01:31:33.938Z,0.41
2023-03-06T01:34:00.364Z,0.42
2023-03-06T01:36:26.776Z,0.41
2023-03-06T01:38:53.174Z,0.43
2023-03-06T01:41:19.612Z,0.53
2023-03-06T01:43:46.028Z,0.43
2023-03-06T01:46:12.454Z,0.34
2023-03-06T01:48:38.919Z,0.35
2023-03-06T01:51:05.361Z,0.38
2023-03-06T01:53:31.825Z,0.38
2023-03-06T01:55:58.228Z,0.40
2023-03-06T01:58:24.655Z,0.38
2023-03-06T02:00:51.127Z,0.40
2023-03-06T02:03:17.552Z,0.38
2023-03-06T02:05:43.956Z,0.35
2023-03-06T02:08:10.354Z,0.34
2023-03-06T02:10:36.750Z,0.37
2023-03-06T02:13:03.146Z,0.38
2023-03-06T02:15:29.552Z,0.39
2023-03-06T02:17:55.978Z,0.37
2023-03-06T02:20:22.383Z,0.36
2023-03-06T02:22:48.793Z,0.36
2023-03-06T02:25:15.216Z,0.35
2023-03-06T02:27:41.638Z,0.29
2023-03-06T02:30:08.057Z,0.26
2023-03-06T02:32:34.573Z,0.25
2023-03-06T02:35:01.054Z,0.25
2023-03-06T02:37:27.554Z,0.26
2023-03-06T02:39:53.986Z,0.26
2023-03-06T02:42:20.386Z,0.24
2023-03-06T02:44:46.803Z,0.24
2023-03-06T02:47:13.187Z,0.19
2023-03-06T02:49:39.609Z,0.20
2023-03-06T02:52:06.079Z,0.19
2023-03-06T02:54:32.497Z,0.20
2023-03-06T02:56:58.917Z,0.23
2023-03-06T02:59:25.312Z,0.23
2023-03-06T03:01:51.763Z,0.25
2023-03-06T03:04:18.297Z,0.21
2023-03-06T03:06:44.717Z,0.19
2023-03-06T03:09:11.122Z,0.19
2023-03-06T03:11:37.507Z,0.15
2023-03-06T03:14:03.921Z,0.16
2023-03-06T03:16:30.322Z,0.17
2023-03-06T03:18:56.748Z,0.19
2023-03-06T03:21:23.130Z,0.20
2023-03-06T03:23:49.559Z,0.22
2023-03-06T03:26:15.967Z,0.26
2023-03-06T03:28:42.376Z,0.24
2023-03-06T03:31:08.814Z,0.23
2023-03-06T03:33:35.230Z,0.22
2023-03-06T03:36:01.633Z,0.22
2023-03-06T03:38:28.022Z,0.23
2023-03-06T03:40:54.427Z,0.28
2023-03-06T03:43:20.826Z,0.26
2023-03-06T03:45:47.218Z,0.26
2023-03-06T03:48:13.651Z,0.27
2023-03-06T03:50:40.073Z,0.27
2023-03-06T03:53:06.493Z,0.28
2023-03-06T03:55:32.880Z,0.30
2023-03-06T03:57:59.311Z,0.29
2023-03-06T04:00:25.730Z,0.35
2023-03-06T04:02:52.190Z,0.36
2023-03-06T04:05:18.587Z,0.40
2023-03-06T04:07:44.994Z,0.38
2023-03-06T04:10:11.400Z,0.38
2023-03-06T04:12:37.806Z,0.48
2023-03-06T04:15:04.218Z,0.36
2023-03-06T04:17:30.665Z,0.34
2023-03-06T04:19:57.113Z,0.34
2023-03-06T04:22:23.512Z,0.36
2023-03-06T04:24:50.004Z,0.37
2023-03-06T04:27:16.427Z,0.38
2023-03-06T04:29:42.815Z,0.39
2023-03-06T04:32:09.227Z,0.40
2023-03-06T04:34:35.693Z,0.43
2023-03-06T04:37:02.104Z,0.43
2023-03-06T04:39:28.531Z,0.46
2023-03-06T04:41:54.954Z,0.47
2023-03-06T04:44:21.467Z,0.46
2023-03-06T04:46:47.962Z,0.46
2023-03-06T04:49:14.376Z,0.44
2023-03-06T04:51:40.803Z,0.41
2023-03-06T04:54:07.234Z,0.44
2023-03-06T04:56:33.643Z,0.37
2023-03-06T04:59:00.087Z,0.35
2023-03-06T05:01:26.501Z,0.42
2023-03-06T05:03:52.888Z,0.46
2023-03-06T05:06:19.309Z,0.34
2023-03-06T05:08:45.777Z,0.32
2023-03-06T05:11:12.195Z,0.33
2023-03-06T05:13:38.646Z,0.35
2023-03-06T05:16:05.197Z,0.38
2023-03-06T05:18:31.626Z,0.38
2023-03-06T05:20:58.041Z,0.41
2023-03-06T05:23:24.459Z,0.48
2023-03-06T05:25:50.892Z,0.48
2023-03-06T05:28:17.294Z,0.52
2023-03-06T05:30:43.682Z,0.51
2023-03-06T05:33:10.124Z,0.54
2023-03-06T05:35:36.537Z,0.60
2023-03-06T05:38:02.951Z,0.62
2023-03-06T05:40:29.364Z,0.64
2023-03-06T05:42:55.777Z,0.65
2023-03-06T05:45:22.169Z,0.65
2023-03-06T05:47:48.585Z,0.68
2023-03-06T05:50:15.012Z,0.70
2023-03-06T05:52:41.413Z,0.71
2023-03-06T05:55:07.808Z,0.68
2023-03-06T05:57:34.209Z,0.70
2023-03-06T06:00:00.647Z,0.73
2023-03-06T06:02:27.129Z,0.75
2023-03-06T06:04:53.570Z,0.84
2023-03-06T06:07:19.986Z,0.85
2023-03-06T06:09:46.373Z,0.91
2023-03-06T06:12:12.791Z,1.00
2023-03-06T06:14:39.216Z,1.06
2023-03-06T06:17:05.720Z,1.08
2023-03-06T06:19:32.153Z,1.10
2023-03-06T06:21:58.562Z,1.13
2023-03-06T06:24:24.988Z,1.13
2023-03-06T06:26:51.376Z,1.17
2023-03-06T06:29:17.783Z,1.22
2023-03-06T06:31:44.189Z,1.25
2023-03-06T06:34:10.607Z,1.33
2023-03-06T06:36:37.008Z,1.41
2023-03-06T06:39:03.448Z,1.63
2023-03-06T06:41:50.627Z,1.66
2023-03-06T06:44:16.481Z,1.80
2023-03-06T06:49:29.308Z,2.08
2023-03-06T06:51:55.908Z,2.28
2023-03-06T06:54:22.338Z,2.25
2023-03-06T06:56:48.789Z,2.29
2023-03-06T06:59:17.035Z,2.29
2023-03-06T07:01:43.995Z,2.28
2023-03-06T07:04:10.536Z,2.25
2023-03-06T07:06:36.977Z,2.25
2023-03-06T07:09:03.514Z,2.25
2023-03-06T07:11:29.908Z,2.29
2023-03-06T07:13:56.355Z,2.36
2023-03-06T07:16:22.834Z,2.34
2023-03-06T07:18:49.384Z,2.36
2023-03-06T07:21:15.785Z,2.40
2023-03-06T07:23:42.200Z,2.43
2023-03-06T07:26:08.617Z,2.47
2023-03-06T07:28:49.834Z,2.54
2023-03-06T07:31:18.240Z,2.63
2023-03-06T07:33:44.661Z,2.72
2023-03-06T07:36:12.833Z,2.79
2023-03-06T07:38:40.235Z,2.88
2023-03-06T07:41:06.658Z,2.93
2023-03-06T07:43:33.066Z,3.05
2023-03-06T07:46:00.504Z,3.19
2023-03-06T07:48:28.126Z,3.02
2023-03-06T07:50:54.680Z,3.04
2023-03-06T07:53:21.175Z,3.11
2023-03-06T07:55:47.944Z,3.18
2023-03-06T07:58:16.546Z,3.25
2023-03-06T08:00:43.142Z,3.33
2023-03-06T08:03:10.749Z,3.43
2023-03-06T08:05:37.175Z,3.49
2023-03-06T08:08:03.572Z,3.58
2023-03-06T08:10:29.974Z,3.66
2023-03-06T08:12:56.521Z,3.79
2023-03-06T08:15:23.006Z,3.90
2023-03-06T08:17:51.247Z,3.85
2023-03-06T08:20:18.828Z,3.92
2023-03-06T08:22:46.428Z,4.03
2023-03-06T08:25:13.020Z,4.15
2023-03-06T08:27:40.638Z,4.22
2023-03-06T08:30:08.242Z,4.28
2023-03-06T08:32:37.496Z,4.30
2023-03-06T08:35:04.435Z,4.35
2023-03-06T08:37:33.108Z,4.32
2023-03-06T08:40:00.633Z,4.44
2023-03-06T08:42:29.212Z,4.27
2023-03-06T08:44:56.794Z,4.25
2023-03-06T08:47:24.406Z,4.31
2023-03-06T08:49:52.003Z,4.41
2023-03-06T08:52:20.641Z,4.53
2023-03-06T08:54:48.227Z,4.73
2023-03-06T08:57:14.839Z,4.86
2023-03-06T08:59:42.425Z,5.13
2023-03-06T09:02:10.024Z,5.31
2023-03-06T09:04:37.610Z,5.33
2023-03-06T09:07:05.194Z,5.48
2023-03-06T09:09:31.761Z,5.63
2023-03-06T09:12:00.355Z,5.77
2023-03-06T09:14:26.786Z,5.92
2023-03-06T09:16:53.222Z,6.00
2023-03-06T09:19:19.678Z,6.01
2023-03-06T09:21:46.119Z,6.07
2023-03-06T09:24:13.306Z,6.10
2023-03-06T09:26:45.973Z,6.17
2023-03-06T09:29:13.534Z,6.25
2023-03-06T09:31:39.953Z,6.30
2023-03-06T09:34:06.538Z,6.35
2023-03-06T09:36:40.224Z,6.34
2023-03-06T09:39:15.931Z,6.35
2023-03-06T09:41:43.513Z,6.50
2023-03-06T09:44:10.090Z,6.78
2023-03-06T09:46:36.699Z,6.55
2023-03-06T09:49:05.404Z,6.60
2023-03-06T09:51:32.951Z,6.61
2023-03-06T09:53:59.770Z,6.71
2023-03-06T09:56:26.241Z,6.78
2023-03-06T09:58:52.690Z,6.95
2023-03-06T10:01:19.202Z,6.82
2023-03-06T10:03:45.637Z,6.85
2023-03-06T10:06:12.105Z,6.94
2023-03-06T10:08:39.003Z,7.06
2023-03-06T10:11:05.669Z,7.21
2023-03-06T10:13:33.170Z,7.44
2023-03-06T10:15:59.817Z,7.44
2023-03-06T10:18:26.695Z,7.52
2023-03-06T10:20:53.940Z,7.71
2023-03-06T10:23:20.361Z,7.63
2023-03-06T10:25:46.760Z,7.75
2023-03-06T10:28:13.187Z,7.87
2023-03-06T10:30:39.606Z,7.95
2023-03-06T10:33:06.126Z,8.09
2023-03-06T10:35:33.529Z,8.15
2023-03-06T10:38:01.050Z,8.31
2023-03-06T10:40:28.642Z,8.59
2023-03-06T10:43:10.587Z,8.27
2023-03-06T10:45:48.663Z,8.39
2023-03-06T10:48:16.564Z,8.35
2023-03-06T10:50:44.118Z,8.34
2023-03-06T10:53:11.705Z,8.43
2023-03-06T10:55:38.307Z,8.55
2023-03-06T10:58:05.880Z,8.76
2023-03-06T11:00:32.485Z,8.71
2023-03-06T11:02:59.361Z,8.72
2023-03-06T11:05:25.809Z,9.10
2023-03-06T11:07:52.256Z,9.01
2023-03-06T11:10:19.962Z,8.89
2023-03-06T11:12:46.611Z,9.01
2023-03-06T11:15:14.062Z,8.99
2023-03-06T11:17:41.628Z,8.92
2023-03-06T11:20:09.259Z,8.88
2023-03-06T11:22:36.829Z,8.79
2023-03-06T11:25:03.409Z,8.95
2023-03-06T11:27:29.982Z,8.81
2023-03-06T11:29:56.369Z,9.00
2023-03-06T11:32:22.828Z,9.17
2023-03-06T11:34:50.696Z,9.18
2023-03-06T11:37:20.389Z,9.19
2023-03-06T11:39:47.981Z,9.17
2023-03-06T11:42:14.543Z,9.12
2023-03-06T11:44:41.180Z,9.17
2023-03-06T11:47:07.614Z,9.17
2023-03-06T11:49:34.096Z,9.37
2023-03-06T11:52:00.891Z,9.62
2023-03-06T11:54:29.480Z,9.34
2023-03-06T11:56:56.355Z,9.51
2023-03-06T11:59:22.756Z,9.33
2023-03-06T12:01:49.255Z,9.53
2023-03-06T12:04:15.730Z,9.50
2023-03-06T12:06:42.169Z,9.43
2023-03-06T12:09:08.570Z,9.40
2023-03-06T12:11:35.077Z,9.34
2023-03-06T12:14:03.942Z,9.30
2023-03-06T12:16:31.875Z,9.26
2023-03-06T12:18:59.391Z,8.96
2023-03-06T12:21:25.837Z,8.93
2023-03-06T12:23:52.689Z,9.00
2023-03-06T12:26:19.152Z,9.01
2023-03-06T12:28:46.524Z,9.19
2023-03-06T12:31:12.961Z,9.07
2023-03-06T12:33:39.407Z,9.01
2023-03-06T12:36:06.010Z,9.16
2023-03-06T12:38:32.502Z,9.24
2023-03-06T12:41:00.949Z,9.23
2023-03-06T12:43:27.557Z,9.29
2023-03-06T12:45:54.048Z,9.58
2023-03-06T12:48:20.738Z,9.70
2023-03-06T12:50:49.429Z,9.54
2023-03-06T12:53:15.918Z,9.35
2023-03-06T12:55:42.332Z,9.26
2023-03-06T12:58:08.750Z,9.20
2023-03-06T13:00:35.171Z,9.28
2023-03-06T13:03:01.604Z,9.24
2023-03-06T13:05:28.064Z,9.23
2023-03-06T13:07:55.518Z,9.22
2023-03-06T13:10:23.118Z,9.25
2023-03-06T13:12:49.610Z,9.57
2023-03-06T13:15:16.003Z,9.45
2023-03-06T13:17:42.665Z,9.44
2023-03-06T13:20:09.044Z,9.73
2023-03-06T13:22:36.124Z,9.88
2023-03-06T13:25:08.144Z,9.84
2023-03-06T13:27:34.811Z,9.85
2023-03-06T13:30:01.310Z,9.58
2023-03-06T13:32:27.847Z,9.67
2023-03-06T13:34:54.291Z,9.69
2023-03-06T13:37:20.695Z,9.61
2023-03-06T13:39:47.131Z,9.55
2023-03-06T13:42:13.857Z,9.38
2023-03-06T13:44:40.500Z,9.35
2023-03-06T13:47:08.155Z,9.12
2023-03-06T13:49:35.742Z,8.91
2023-03-06T13:52:02.338Z,8.86
2023-03-06T13:54:29.961Z,8.92
2023-03-06T13:56:56.586Z,9.00
2023-03-06T13:59:24.168Z,9.04
2023-03-06T14:01:52.598Z,8.96
2023-03-06T14:04:19.039Z,9.07
2023-03-06T14:06:46.034Z,9.08
2023-03-06T14:09:12.445Z,9.10
2023-03-06T14:11:38.898Z,9.04
2023-03-06T14:14:05.308Z,8.98
2023-03-06T14:16:48.642Z,8.83
2023-03-06T14:19:16.068Z,8.81
2023-03-06T14:21:42.643Z,8.86
2023-03-06T14:24:09.053Z,8.79
2023-03-06T14:26:35.846Z,8.88
2023-03-06T14:29:03.509Z,8.94
2023-03-06T14:31:30.135Z,9.00
2023-03-06T14:33:56.553Z,8.88
2023-03-06T14:36:23.127Z,9.05
2023-03-06T14:38:49.561Z,9.07
2023-03-06T14:41:16.000Z,9.10
2023-03-06T14:43:43.047Z,8.96
2023-03-06T14:46:11.646Z,8.84
2023-03-06T14:48:38.564Z,8.73
2023-03-06T14:51:05.019Z,8.56
2023-03-06T14:53:31.438Z,8.75
2023-03-06T14:55:57.862Z,8.51
2023-03-06T14:58:25.587Z,8.29
2023-03-06T15:00:52.292Z,8.26
2023-03-06T15:03:18.752Z,8.09
2023-03-06T15:05:45.328Z,8.15
2023-03-06T15:08:11.941Z,8.06
2023-03-06T15:10:38.359Z,7.88
2023-03-06T15:13:04.786Z,7.98
2023-03-06T15:15:31.705Z,7.86
2023-03-06T15:17:58.094Z,7.74
2023-03-06T15:20:24.568Z,7.62
2023-03-06T15:22:51.029Z,7.55
2023-03-06T15:25:17.563Z,7.48
2023-03-06T15:27:45.660Z,7.48
2023-03-06T15:30:13.256Z,7.40
2023-03-06T15:32:39.912Z,7.39
2023-03-06T15:35:06.581Z,7.27
2023-03-06T15:37:33.028Z,7.31
2023-03-06T15:40:00.747Z,7.22
2023-03-06T15:42:27.180Z,7.28
2023-03-06T15:44:53.911Z,7.17
2023-03-06T15:47:20.509Z,7.16
2023-03-06T15:49:46.926Z,7.10
2023-03-06T15:52:13.369Z,6.95
2023-03-06T15:54:39.794Z,6.96
2023-03-06T15:57:07.885Z,6.86
2023-03-06T15:59:36.464Z,6.87
2023-03-06T16:02:02.933Z,6.73
2023-03-06T16:04:29.501Z,6.80
2023-03-06T16:06:55.974Z,6.83
2023-03-06T16:09:22.822Z,6.59
2023-03-06T16:11:49.244Z,6.56
2023-03-06T16:14:15.651Z,6.44
2023-03-06T16:16:42.104Z,6.39
2023-03-06T16:19:13.949Z,6.33
2023-03-06T16:21:43.300Z,6.29
2023-03-06T16:24:09.710Z,6.25
2023-03-06T16:26:36.188Z,6.09
2023-03-06T16:29:02.612Z,6.07
2023-03-06T16:31:29.063Z,5.95
2023-03-06T16:33:55.562Z,6.06
2023-03-06T16:36:22.359Z,5.88
2023-03-06T16:38:48.757Z,5.81
2023-03-06T16:41:15.163Z,5.73
2023-03-06T16:43:41.566Z,5.67
2023-03-06T16:46:08.062Z,5.67
2023-03-06T16:48:34.490Z,5.66
2023-03-06T16:51:00.928Z,5.68
2023-03-06T16:53:27.348Z,5.56
2023-03-06T16:55:53.792Z,5.51
2023-03-06T16:58:20.312Z,5.48
2023-03-06T17:00:46.882Z,5.49
2023-03-06T17:03:13.320Z,5.45
2023-03-06T17:05:39.759Z,5.29
2023-03-06T17:08:06.241Z,5.26
2023-03-06T17:10:32.689Z,5.31
2023-03-06T17:12:59.150Z,5.23
2023-03-06T17:15:25.558Z,5.15
2023-03-06T17:17:51.939Z,5.19
2023-03-06T17:20:18.325Z,4.99
2023-03-06T17:22:44.755Z,5.06
2023-03-06T17:25:11.191Z,4.91
2023-03-06T17:27:37.588Z,4.94
2023-03-06T17:30:04.047Z,4.68
2023-03-06T17:32:30.523Z,4.84
2023-03-06T17:34:57.022Z,4.63
2023-03-06T17:37:23.462Z,4.73
2023-03-06T17:39:49.921Z,4.85
2023-03-06T17:42:16.365Z,4.69
2023-03-06T17:44:42.767Z,4.62
2023-03-06T17:47:09.160Z,4.68
2023-03-06T17:49:35.567Z,4.62
2023-03-06T17:52:01.988Z,4.63
2023-03-06T17:54:28.956Z,4.48
2023-03-06T17:56:55.432Z,4.48
2023-03-06T17:59:21.834Z,4.53
2023-03-06T18:01:48.304Z,4.51
2023-03-06T18:04:14.729Z,4.57
2023-03-06T18:06:41.161Z,4.51
2023-03-06T18:09:07.558Z,4.46
2023-03-06T18:11:33.995Z,4.46
2023-03-06T18:14:00.403Z,4.32
2023-03-06T18:16:26.913Z,4.14
2023-03-06T18:18:53.352Z,4.30
2023-03-06T18:21:19.774Z,4.26
2023-03-06T18:23:46.409Z,4.25
2023-03-06T18:26:12.831Z,4.22
2023-03-06T18:28:39.263Z,4.27
2023-03-06T18:31:05.693Z,4.22
2023-03-06T18:33:32.106Z,4.05
2023-03-06T18:35:58.543Z,4.07
2023-03-06T18:38:24.994Z,4.10
2023-03-06T18:40:51.563Z,4.16
2023-03-06T18:43:18.176Z,4.11
2023-03-06T18:45:44.623Z,3.96
2023-03-06T18:48:11.081Z,4.02
2023-03-06T18:50:37.493Z,3.93
2023-03-06T18:53:03.886Z,3.82
2023-03-06T18:55:30.319Z,3.97
2023-03-06T18:57:56.743Z,3.75
2023-03-06T19:00:23.212Z,4.06
2023-03-06T19:02:49.641Z,4.10
2023-03-06T19:05:16.049Z,4.09
2023-03-06T19:07:42.475Z,3.79
2023-03-06T19:10:08.874Z,3.82
2023-03-06T19:12:35.274Z,3.98
2023-03-06T19:15:01.671Z,4.02
2023-03-06T19:17:28.083Z,3.84
2023-03-06T19:19:54.518Z,3.93
2023-03-06T19:22:20.962Z,3.87
2023-03-06T19:24:47.390Z,3.85
2023-03-06T19:27:13.811Z,3.80
2023-03-06T19:29:40.248Z,3.73
2023-03-06T19:32:06.788Z,3.74
2023-03-06T19:34:33.263Z,3.75
2023-03-06T19:36:59.682Z,3.68
2023-03-06T19:39:26.074Z,3.76
2023-03-06T19:41:52.468Z,3.84
2023-03-06T19:44:18.890Z,3.80
2023-03-06T19:46:45.318Z,3.71
2023-03-06T19:49:11.812Z,3.70
2023-03-06T19:51:38.354Z,3.65
2023-03-06T19:54:04.775Z,3.65
2023-03-06T19:56:31.159Z,3.51
2023-03-06T19:58:57.634Z,3.51
2023-03-06T20:01:24.093Z,3.66
2023-03-06T20:03:50.578Z,3.65
2023-03-06T20:06:17.054Z,3.60
2023-03-06T20:08:43.515Z,3.49
2023-03-06T20:11:09.894Z,3.45
2023-03-06T20:13:36.298Z,3.45
2023-03-06T20:16:03.080Z,3.63
2023-03-06T20:18:29.543Z,3.57
2023-03-06T20:20:55.945Z,3.62
2023-03-06T20:23:22.341Z,3.54
2023-03-06T20:25:48.747Z,3.35
2023-03-06T20:28:15.161Z,3.45
2023-03-06T20:30:41.574Z,3.28
2023-03-06T20:33:08.004Z,3.31
2023-03-06T20:35:34.438Z,3.40
2023-03-06T20:38:00.882Z,3.50
2023-03-06T20:40:27.330Z,3.34
2023-03-06T20:42:53.753Z,3.09
2023-03-06T20:45:20.166Z,3.44
2023-03-06T20:47:46.610Z,3.53
2023-03-06T20:50:13.089Z,3.48
2023-03-06T20:52:39.602Z,3.23
2023-03-06T20:55:06.000Z,3.50
2023-03-06T20:57:32.438Z,3.33
2023-03-06T20:59:59.129Z,3.37
2023-03-06T21:02:26.706Z,3.31
2023-03-06T21:04:53.195Z,3.32
2023-03-06T21:07:19.627Z,3.38
2023-03-06T21:09:46.038Z,3.47
2023-03-06T21:12:12.455Z,3.56
2023-03-06T21:14:38.876Z,3.64
2023-03-06T21:17:05.344Z,3.71
2023-03-06T21:19:31.786Z,3.75
2023-03-06T21:21:58.202Z,3.76
2023-03-06T21:24:24.601Z,3.87
2023-03-06T21:26:51.020Z,4.00
2023-03-06T21:29:17.442Z,3.87
2023-03-06T21:31:43.890Z,3.66
2023-03-06T21:34:10.352Z,3.61
2023-03-06T21:36:36.753Z,3.57
2023-03-06T21:39:03.314Z,3.75
2023-03-06T21:41:29.733Z,3.59
2023-03-06T21:43:56.152Z,3.66
2023-03-06T21:46:22.637Z,3.83
2023-03-06T21:48:49.070Z,3.66
2023-03-06T21:51:15.467Z,3.84
2023-03-06T21:53:41.868Z,3.75
2023-03-06T21:56:08.301Z,3.74
2023-03-06T21:58:35.465Z,3.59
2023-03-06T22:01:01.949Z,3.41
2023-03-06T22:03:28.400Z,3.27
2023-03-06T22:05:54.825Z,3.17
2023-03-06T22:08:21.296Z,3.22
2023-03-06T22:10:48.533Z,3.28
2023-03-06T22:13:15.059Z,3.15
2023-03-06T22:15:41.454Z,3.20
2023-03-06T22:18:07.861Z,3.13
2023-03-06T22:20:34.291Z,3.15
2023-03-06T22:23:00.761Z,3.09
2023-03-06T22:25:27.218Z,3.12
2023-03-06T22:27:53.640Z,3.08
2023-03-06T22:30:20.065Z,3.14
2023-03-06T22:32:46.637Z,3.11
2023-03-06T22:35:13.057Z,3.23
2023-03-06T22:37:39.459Z,3.25
2023-03-06T22:40:05.913Z,3.05
2023-03-06T22:42:32.305Z,3.10
2023-03-06T22:44:58.732Z,3.15
2023-03-06T22:47:25.165Z,3.08
2023-03-06T22:49:51.577Z,3.11
2023-03-06T22:52:18.006Z,3.04
2023-03-06T22:54:44.571Z,3.00
2023-03-06T22:57:10.977Z,2.91
2023-03-06T22:59:37.391Z,2.97
2023-03-06T23:02:04.284Z,3.08
2023-03-06T23:04:30.717Z,2.84
2023-03-06T23:06:57.144Z,2.82
2023-03-06T23:09:23.578Z,2.78
2023-03-06T23:11:50.642Z,2.76
2023-03-06T23:14:17.252Z,2.99
2023-03-06T23:16:43.757Z,3.07
2023-03-06T23:19:10.186Z,3.03
2023-03-06T23:21:36.614Z,3.22
2023-03-06T23:24:03.020Z,3.04
2023-03-06T23:26:29.515Z,3.09
2023-03-06T23:28:56.004Z,2.89
2023-03-06T23:31:22.705Z,2.64
2023-03-06T23:33:49.144Z,2.46
2023-03-06T23:36:15.550Z,2.60
2023-03-06T23:38:42.057Z,3.03
2023-03-06T23:41:08.461Z,2.87
2023-03-06T23:43:34.963Z,2.86
2023-03-06T23:46:01.456Z,2.72
2023-03-06T23:48:27.891Z,2.51
2023-03-06T23:50:54.311Z,2.39
2023-03-06T23:53:20.762Z,2.43
2023-03-06T23:55:47.185Z,2.55
2023-03-06T23:58:13.654Z,2.50
